sensor_id;sensor_type;location;lat;lon;timestamp;P1;durP1;ratioP1;P2;durP2;ratioP2
9418;SDS011;4748;50.802;7.132;2022-09-12T03:32:43;7.50;;;4.27;;
9418;SDS011;4748;50.802;7.132;2022-09-12T03:35:14;10.23;;;3.87;;
9418;SDS011;4748;50.802;7.132;2022-09-12T03:37:41;5.20;;;3.87;;
9418;SDS011;4748;50.802;7.132;2022-09-12T03:40:08;5.53;;;4.27;;
9418;SDS011;4748;50.802;7.132;2022-09-12T03:42:35;7.27;;;3.90;;
9418;SDS011;4748;50.802;7.132;2022-09-12T03:45:01;10.10;;;4.50;;
9418;SDS011;4748;50.802;7.132;2022-09-12T03:47:26;6.10;;;3.63;;
9418;SDS011;4748;50.802;7.132;2022-09-12T03:49:51;6.30;;;4.00;;
9418;SDS011;4748;50.802;7.132;2022-09-12T03:52:17;9.40;;;4.53;;
9418;SDS011;4748;50.802;7.132;2022-09-12T03:54:43;10.70;;;4.30;;
9418;SDS011;4748;50.802;7.132;2022-09-12T03:57:09;6.40;;;3.40;;
9418;SDS011;4748;50.802;7.132;2022-09-12T03:59:34;8.43;;;3.77;;
9418;SDS011;4748;50.802;7.132;2022-09-12T04:02:00;4.97;;;3.20;;
9418;SDS011;4748;50.802;7.132;2022-09-12T04:04:25;5.20;;;3.47;;
9418;SDS011;4748;50.802;7.132;2022-09-12T04:06:51;9.07;;;4.40;;
9418;SDS011;4748;50.802;7.132;2022-09-12T04:09:16;8.93;;;3.93;;
9418;SDS011;4748;50.802;7.132;2022-09-12T04:11:41;8.27;;;4.23;;
9418;SDS011;4748;50.802;7.132;2022-09-12T04:14:06;6.67;;;3.83;;
9418;SDS011;4748;50.802;7.132;2022-09-12T04:16:32;5.20;;;3.67;;
9418;SDS011;4748;50.802;7.132;2022-09-12T04:18:57;9.43;;;4.93;;
9418;SDS011;4748;50.802;7.132;2022-09-12T04:21:23;7.47;;;4.10;;
9418;SDS011;4748;50.802;7.132;2022-09-12T04:23:48;5.10;;;3.43;;
9418;SDS011;4748;50.802;7.132;2022-09-12T04:26:14;7.33;;;4.57;;
9418;SDS011;4748;50.802;7.132;2022-09-12T04:28:41;5.50;;;3.47;;
9418;SDS011;4748;50.802;7.132;2022-09-12T04:31:12;8.43;;;4.53;;
9418;SDS011;4748;50.802;7.132;2022-09-12T04:33:41;8.23;;;3.87;;
9418;SDS011;4748;50.802;7.132;2022-09-12T04:36:09;5.83;;;3.60;;
9418;SDS011;4748;50.802;7.132;2022-09-12T04:38:38;5.57;;;3.57;;
9418;SDS011;4748;50.802;7.132;2022-09-12T04:41:14;9.93;;;4.10;;
9418;SDS011;4748;50.802;7.132;2022-09-12T04:43:45;6.90;;;3.67;;
9418;SDS011;4748;50.802;7.132;2022-09-12T04:46:16;10.47;;;3.63;;
9418;SDS011;4748;50.802;7.132;2022-09-12T04:48:44;6.33;;;4.03;;
9418;SDS011;4748;50.802;7.132;2022-09-12T04:51:10;10.03;;;3.30;;
9418;SDS011;4748;50.802;7.132;2022-09-12T04:53:59;10.50;;;4.13;;
9418;SDS011;4748;50.802;7.132;2022-09-12T04:56:29;10.37;;;3.77;;
9418;SDS011;4748;50.802;7.132;2022-09-12T04:58:58;6.53;;;3.93;;
9418;SDS011;4748;50.802;7.132;2022-09-12T05:01:25;4.33;;;3.37;;
9418;SDS011;4748;50.802;7.132;2022-09-12T05:03:52;6.93;;;3.63;;
9418;SDS011;4748;50.802;7.132;2022-09-12T05:06:19;7.00;;;3.97;;
9418;SDS011;4748;50.802;7.132;2022-09-12T05:08:47;6.67;;;3.77;;
9418;SDS011;4748;50.802;7.132;2022-09-12T05:11:14;5.70;;;3.77;;
9418;SDS011;4748;50.802;7.132;2022-09-12T05:13:42;5.23;;;3.10;;
9418;SDS011;4748;50.802;7.132;2022-09-12T05:16:09;5.03;;;3.13;;
9418;SDS011;4748;50.802;7.132;2022-09-12T05:18:36;8.70;;;3.63;;
9418;SDS011;4748;50.802;7.132;2022-09-12T05:21:02;4.97;;;3.00;;
9418;SDS011;4748;50.802;7.132;2022-09-12T05:23:30;11.57;;;3.47;;
9418;SDS011;4748;50.802;7.132;2022-09-12T05:25:56;11.13;;;2.80;;
9418;SDS011;4748;50.802;7.132;2022-09-12T05:28:22;11.07;;;3.67;;
9418;SDS011;4748;50.802;7.132;2022-09-12T05:33:31;3.40;;;3.13;;
9418;SDS011;4748;50.802;7.132;2022-09-12T05:35:58;4.23;;;2.90;;
9418;SDS011;4748;50.802;7.132;2022-09-12T05:38:24;5.60;;;2.80;;
9418;SDS011;4748;50.802;7.132;2022-09-12T05:40:50;6.53;;;3.27;;
9418;SDS011;4748;50.802;7.132;2022-09-12T05:43:16;8.60;;;3.27;;
9418;SDS011;4748;50.802;7.132;2022-09-12T05:45:41;4.67;;;3.10;;
9418;SDS011;4748;50.802;7.132;2022-09-12T05:48:07;5.10;;;3.03;;
9418;SDS011;4748;50.802;7.132;2022-09-12T05:50:32;3.60;;;3.03;;
9418;SDS011;4748;50.802;7.132;2022-09-12T05:52:58;5.17;;;3.67;;
9418;SDS011;4748;50.802;7.132;2022-09-12T05:55:23;4.07;;;2.73;;
9418;SDS011;4748;50.802;7.132;2022-09-12T05:57:49;4.67;;;2.40;;
9418;SDS011;4748;50.802;7.132;2022-09-12T06:00:15;3.00;;;2.37;;
9418;SDS011;4748;50.802;7.132;2022-09-12T06:02:41;6.00;;;3.10;;
9418;SDS011;4748;50.802;7.132;2022-09-12T06:05:07;7.80;;;3.17;;
9418;SDS011;4748;50.802;7.132;2022-09-12T06:07:32;7.07;;;3.30;;
9418;SDS011;4748;50.802;7.132;2022-09-12T06:09:59;5.17;;;3.20;;
9418;SDS011;4748;50.802;7.132;2022-09-12T06:12:25;3.73;;;2.80;;
9418;SDS011;4748;50.802;7.132;2022-09-12T06:14:53;6.67;;;2.40;;
9418;SDS011;4748;50.802;7.132;2022-09-12T06:17:18;5.33;;;3.40;;
9418;SDS011;4748;50.802;7.132;2022-09-12T06:19:43;4.93;;;3.33;;
9418;SDS011;4748;50.802;7.132;2022-09-12T06:22:09;5.00;;;2.73;;
9418;SDS011;4748;50.802;7.132;2022-09-12T06:24:35;4.00;;;2.53;;
9418;SDS011;4748;50.802;7.132;2022-09-12T06:27:00;8.27;;;3.37;;
9418;SDS011;4748;50.802;7.132;2022-09-12T06:29:26;2.67;;;2.47;;
9418;SDS011;4748;50.802;7.132;2022-09-12T06:31:52;4.17;;;3.07;;
9418;SDS011;4748;50.802;7.132;2022-09-12T06:34:17;4.47;;;2.63;;
9418;SDS011;4748;50.802;7.132;2022-09-12T06:36:44;3.63;;;3.07;;
9418;SDS011;4748;50.802;7.132;2022-09-12T06:39:12;4.80;;;3.23;;
9418;SDS011;4748;50.802;7.132;2022-09-12T06:41:41;3.57;;;3.03;;
9418;SDS011;4748;50.802;7.132;2022-09-12T06:44:08;4.63;;;2.70;;
9418;SDS011;4748;50.802;7.132;2022-09-12T06:46:36;3.90;;;2.90;;
9418;SDS011;4748;50.802;7.132;2022-09-12T06:49:01;8.30;;;2.30;;
9418;SDS011;4748;50.802;7.132;2022-09-12T06:51:27;3.23;;;2.63;;
9418;SDS011;4748;50.802;7.132;2022-09-12T06:53:53;4.17;;;3.47;;
9418;SDS011;4748;50.802;7.132;2022-09-12T06:56:21;5.60;;;2.97;;
9418;SDS011;4748;50.802;7.132;2022-09-12T06:58:48;5.00;;;2.77;;
9418;SDS011;4748;50.802;7.132;2022-09-12T07:01:19;4.40;;;2.43;;
9418;SDS011;4748;50.802;7.132;2022-09-12T07:03:46;5.50;;;3.20;;
9418;SDS011;4748;50.802;7.132;2022-09-12T07:06:13;2.93;;;2.63;;
9418;SDS011;4748;50.802;7.132;2022-09-12T07:08:40;3.33;;;3.03;;
9418;SDS011;4748;50.802;7.132;2022-09-12T07:11:17;4.77;;;3.23;;
9418;SDS011;4748;50.802;7.132;2022-09-12T07:13:45;5.67;;;3.07;;
9418;SDS011;4748;50.802;7.132;2022-09-12T07:16:13;4.90;;;2.80;;
9418;SDS011;4748;50.802;7.132;2022-09-12T07:18:39;7.93;;;2.87;;
9418;SDS011;4748;50.802;7.132;2022-09-12T07:21:06;5.50;;;3.17;;
9418;SDS011;4748;50.802;7.132;2022-09-12T07:23:34;6.70;;;3.10;;
9418;SDS011;4748;50.802;7.132;2022-09-12T07:25:59;3.03;;;2.60;;
9418;SDS011;4748;50.802;7.132;2022-09-12T07:31:08;2.37;;;2.23;;
9418;SDS011;4748;50.802;7.132;2022-09-12T07:33:41;5.13;;;2.70;;
9418;SDS011;4748;50.802;7.132;2022-09-12T07:36:09;5.20;;;2.70;;
9418;SDS011;4748;50.802;7.132;2022-09-12T07:38:36;3.83;;;2.87;;
9418;SDS011;4748;50.802;7.132;2022-09-12T07:43:58;3.10;;;1.97;;
9418;SDS011;4748;50.802;7.132;2022-09-12T07:46:25;3.93;;;3.60;;
9418;SDS011;4748;50.802;7.132;2022-09-12T07:48:53;4.80;;;3.20;;
9418;SDS011;4748;50.802;7.132;2022-09-12T07:51:20;2.60;;;2.40;;
9418;SDS011;4748;50.802;7.132;2022-09-12T07:53:46;2.47;;;2.27;;
9418;SDS011;4748;50.802;7.132;2022-09-12T07:56:16;6.20;;;2.97;;
9418;SDS011;4748;50.802;7.132;2022-09-12T07:58:43;3.43;;;3.00;;
9418;SDS011;4748;50.802;7.132;2022-09-12T08:03:37;8.30;;;3.70;;
9418;SDS011;4748;50.802;7.132;2022-09-12T08:08:33;3.27;;;2.90;;
9418;SDS011;4748;50.802;7.132;2022-09-12T08:11:01;7.30;;;3.30;;
9418;SDS011;4748;50.802;7.132;2022-09-12T08:13:30;3.27;;;2.97;;
9418;SDS011;4748;50.802;7.132;2022-09-12T08:15:57;5.03;;;3.40;;
9418;SDS011;4748;50.802;7.132;2022-09-12T08:18:24;4.27;;;2.90;;
9418;SDS011;4748;50.802;7.132;2022-09-12T08:20:59;4.47;;;2.97;;
9418;SDS011;4748;50.802;7.132;2022-09-12T08:23:27;2.57;;;2.37;;
9418;SDS011;4748;50.802;7.132;2022-09-12T08:25:57;4.17;;;2.90;;
9418;SDS011;4748;50.802;7.132;2022-09-12T08:28:24;4.23;;;3.07;;
9418;SDS011;4748;50.802;7.132;2022-09-12T08:30:50;3.37;;;2.27;;
9418;SDS011;4748;50.802;7.132;2022-09-12T08:33:16;2.67;;;2.47;;
9418;SDS011;4748;50.802;7.132;2022-09-12T08:35:41;4.33;;;2.27;;
9418;SDS011;4748;50.802;7.132;2022-09-12T08:38:06;5.03;;;2.97;;
9418;SDS011;4748;50.802;7.132;2022-09-12T08:40:32;4.20;;;2.53;;
9418;SDS011;4748;50.802;7.132;2022-09-12T08:45:49;3.47;;;2.37;;
9418;SDS011;4748;50.802;7.132;2022-09-12T08:48:24;3.63;;;2.67;;
9418;SDS011;4748;50.802;7.132;2022-09-12T08:50:50;3.67;;;2.73;;
9418;SDS011;4748;50.802;7.132;2022-09-12T08:53:17;6.18;;;3.53;;
9418;SDS011;4748;50.802;7.132;2022-09-12T08:56:03;4.27;;;3.00;;
9418;SDS011;4748;50.802;7.132;2022-09-12T08:58:34;5.23;;;2.80;;
9418;SDS011;4748;50.802;7.132;2022-09-12T09:01:06;6.67;;;3.03;;
9418;SDS011;4748;50.802;7.132;2022-09-12T09:04:20;2.78;;;2.38;;
9418;SDS011;4748;50.802;7.132;2022-09-12T09:07:00;2.50;;;2.30;;
9418;SDS011;4748;50.802;7.132;2022-09-12T09:17:46;3.05;;;2.78;;
9418;SDS011;4748;50.802;7.132;2022-09-12T09:20:18;5.70;;;2.50;;
9418;SDS011;4748;50.802;7.132;2022-09-12T09:26:04;3.60;;;2.33;;
9418;SDS011;4748;50.802;7.132;2022-09-12T09:31:17;3.22;;;2.10;;
9418;SDS011;4748;50.802;7.132;2022-09-12T09:33:45;3.65;;;2.75;;
9418;SDS011;4748;50.802;7.132;2022-09-12T09:36:29;6.45;;;2.38;;
9418;SDS011;4748;50.802;7.132;2022-09-12T09:39:05;2.97;;;2.42;;
9418;SDS011;4748;50.802;7.132;2022-09-12T09:44:52;3.10;;;2.15;;
9418;SDS011;4748;50.802;7.132;2022-09-12T09:47:20;2.28;;;2.08;;
9418;SDS011;4748;50.802;7.132;2022-09-12T09:49:46;1.38;;;1.20;;
9418;SDS011;4748;50.802;7.132;2022-09-12T09:52:14;1.83;;;1.73;;
9418;SDS011;4748;50.802;7.132;2022-09-12T09:54:43;1.63;;;1.52;;
9418;SDS011;4748;50.802;7.132;2022-09-12T10:05:46;1.92;;;1.60;;
9418;SDS011;4748;50.802;7.132;2022-09-12T10:08:23;2.25;;;1.58;;
9418;SDS011;4748;50.802;7.132;2022-09-12T10:10:53;3.20;;;1.83;;
9418;SDS011;4748;50.802;7.132;2022-09-12T10:13:41;2.58;;;1.55;;
9418;SDS011;4748;50.802;7.132;2022-09-12T10:16:16;10.68;;;1.70;;
9418;SDS011;4748;50.802;7.132;2022-09-12T10:18:47;1.85;;;1.50;;
9418;SDS011;4748;50.802;7.132;2022-09-12T10:23:46;1.50;;;1.25;;
9418;SDS011;4748;50.802;7.132;2022-09-12T10:26:17;1.30;;;1.30;;
9418;SDS011;4748;50.802;7.132;2022-09-12T10:28:44;1.27;;;1.20;;
9418;SDS011;4748;50.802;7.132;2022-09-12T10:31:22;1.77;;;1.52;;
9418;SDS011;4748;50.802;7.132;2022-09-12T10:33:54;1.45;;;1.35;;
9418;SDS011;4748;50.802;7.132;2022-09-12T10:36:22;1.48;;;1.38;;
9418;SDS011;4748;50.802;7.132;2022-09-12T10:38:49;1.65;;;1.33;;
9418;SDS011;4748;50.802;7.132;2022-09-12T10:41:17;1.23;;;1.23;;
9418;SDS011;4748;50.802;7.132;2022-09-12T10:43:45;1.52;;;1.25;;
9418;SDS011;4748;50.802;7.132;2022-09-12T10:48:42;1.05;;;1.05;;
9418;SDS011;4748;50.802;7.132;2022-09-12T10:51:32;1.38;;;1.27;;
9418;SDS011;4748;50.802;7.132;2022-09-12T10:53:58;1.50;;;1.40;;
9418;SDS011;4748;50.802;7.132;2022-09-12T10:56:33;1.80;;;0.90;;
9418;SDS011;4748;50.802;7.132;2022-09-12T11:17:54;0.95;;;0.95;;
9418;SDS011;4748;50.802;7.132;2022-09-12T11:31:50;0.85;;;0.73;;
9418;SDS011;4748;50.802;7.132;2022-09-12T11:34:24;4.13;;;0.82;;
9418;SDS011;4748;50.802;7.132;2022-09-12T11:39:51;1.27;;;0.63;;
9418;SDS011;4748;50.802;7.132;2022-09-12T11:42:25;0.50;;;0.50;;
9418;SDS011;4748;50.802;7.132;2022-09-12T11:45:15;0.88;;;0.88;;
9418;SDS011;4748;50.802;7.132;2022-09-12T11:47:51;0.50;;;0.50;;
9418;SDS011;4748;50.802;7.132;2022-09-12T11:50:26;0.82;;;0.80;;
9418;SDS011;4748;50.802;7.132;2022-09-12T11:53:37;0.50;;;0.50;;
9418;SDS011;4748;50.802;7.132;2022-09-12T11:55:54;1.00;;;1.00;;
9418;SDS011;4748;50.802;7.132;2022-09-12T11:58:26;0.65;;;0.65;;
9418;SDS011;4748;50.802;7.132;2022-09-12T12:00:55;1.85;;;0.75;;
9418;SDS011;4748;50.802;7.132;2022-09-12T12:03:36;1.05;;;0.70;;
9418;SDS011;4748;50.802;7.132;2022-09-12T12:06:08;0.52;;;0.52;;
9418;SDS011;4748;50.802;7.132;2022-09-12T12:08:39;0.60;;;0.60;;
9418;SDS011;4748;50.802;7.132;2022-09-12T12:11:07;0.80;;;0.80;;
9418;SDS011;4748;50.802;7.132;2022-09-12T12:13:35;0.55;;;0.55;;
9418;SDS011;4748;50.802;7.132;2022-09-12T12:21:45;0.47;;;0.43;;
9418;SDS011;4748;50.802;7.132;2022-09-12T12:24:21;0.55;;;0.55;;
9418;SDS011;4748;50.802;7.132;2022-09-12T12:36:59;2.42;;;0.52;;
9418;SDS011;4748;50.802;7.132;2022-09-12T12:47:31;1.85;;;0.57;;
9418;SDS011;4748;50.802;7.132;2022-09-12T12:55:29;0.40;;;0.40;;
9418;SDS011;4748;50.802;7.132;2022-09-12T12:57:58;0.40;;;0.40;;
9418;SDS011;4748;50.802;7.132;2022-09-12T13:02:58;0.50;;;0.50;;
9418;SDS011;4748;50.802;7.132;2022-09-12T13:05:42;0.50;;;0.50;;
9418;SDS011;4748;50.802;7.132;2022-09-12T13:10:48;0.57;;;0.50;;
9418;SDS011;4748;50.802;7.132;2022-09-12T13:13:20;0.50;;;0.50;;
9418;SDS011;4748;50.802;7.132;2022-09-12T13:15:50;0.57;;;0.57;;
9418;SDS011;4748;50.802;7.132;2022-09-12T13:20:50;0.65;;;0.65;;
9418;SDS011;4748;50.802;7.132;2022-09-12T13:25:51;0.88;;;0.57;;
9418;SDS011;4748;50.802;7.132;2022-09-12T13:28:21;0.70;;;0.70;;
9418;SDS011;4748;50.802;7.132;2022-09-12T13:31:09;0.73;;;0.73;;
9418;SDS011;4748;50.802;7.132;2022-09-12T13:33:41;2.00;;;0.90;;
9418;SDS011;4748;50.802;7.132;2022-09-12T13:36:24;0.75;;;0.75;;
9418;SDS011;4748;50.802;7.132;2022-09-12T13:44:02;0.70;;;0.70;;
9418;SDS011;4748;50.802;7.132;2022-09-12T13:46:32;1.70;;;1.10;;
9418;SDS011;4748;50.802;7.132;2022-09-12T13:48:59;0.95;;;0.95;;
9418;SDS011;4748;50.802;7.132;2022-09-12T13:51:26;0.82;;;0.82;;
9418;SDS011;4748;50.802;7.132;2022-09-12T13:53:55;1.58;;;1.48;;
9418;SDS011;4748;50.802;7.132;2022-09-12T13:56:24;2.13;;;1.15;;
9418;SDS011;4748;50.802;7.132;2022-09-12T13:58:53;1.65;;;0.90;;
9418;SDS011;4748;50.802;7.132;2022-09-12T14:01:23;4.97;;;1.30;;
9418;SDS011;4748;50.802;7.132;2022-09-12T14:04:06;3.60;;;1.23;;
9418;SDS011;4748;50.802;7.132;2022-09-12T14:06:58;1.02;;;1.02;;
9418;SDS011;4748;50.802;7.132;2022-09-12T14:09:30;0.77;;;0.77;;
9418;SDS011;4748;50.802;7.132;2022-09-12T14:11:59;0.93;;;0.88;;
9418;SDS011;4748;50.802;7.132;2022-09-12T14:14:32;3.00;;;1.02;;
9418;SDS011;4748;50.802;7.132;2022-09-12T14:17:00;0.80;;;0.80;;
9418;SDS011;4748;50.802;7.132;2022-09-12T14:19:39;0.80;;;0.80;;
9418;SDS011;4748;50.802;7.132;2022-09-12T14:22:06;1.30;;;0.90;;
9418;SDS011;4748;50.802;7.132;2022-09-12T14:24:36;0.77;;;0.77;;
9418;SDS011;4748;50.802;7.132;2022-09-12T14:27:03;1.10;;;1.10;;
9418;SDS011;4748;50.802;7.132;2022-09-12T14:29:29;1.02;;;1.02;;
9418;SDS011;4748;50.802;7.132;2022-09-12T14:32:01;0.80;;;0.80;;
9418;SDS011;4748;50.802;7.132;2022-09-12T14:34:27;1.25;;;1.17;;
9418;SDS011;4748;50.802;7.132;2022-09-12T14:36:53;0.90;;;0.90;;
9418;SDS011;4748;50.802;7.132;2022-09-12T14:39:28;1.88;;;0.90;;
9418;SDS011;4748;50.802;7.132;2022-09-12T14:42:17;0.98;;;0.95;;
9418;SDS011;4748;50.802;7.132;2022-09-12T14:44:54;0.70;;;0.70;;
9418;SDS011;4748;50.802;7.132;2022-09-12T14:47:23;0.90;;;0.90;;
9418;SDS011;4748;50.802;7.132;2022-09-12T14:49:51;0.85;;;0.85;;
9418;SDS011;4748;50.802;7.132;2022-09-12T14:52:22;0.70;;;0.70;;
9418;SDS011;4748;50.802;7.132;2022-09-12T14:54:57;0.60;;;0.60;;
9418;SDS011;4748;50.802;7.132;2022-09-12T14:57:35;5.28;;;0.80;;
9418;SDS011;4748;50.802;7.132;2022-09-12T15:02:41;3.63;;;0.70;;
9418;SDS011;4748;50.802;7.132;2022-09-12T15:07:33;0.73;;;0.73;;
9418;SDS011;4748;50.802;7.132;2022-09-12T15:10:47;0.68;;;0.68;;
9418;SDS011;4748;50.802;7.132;2022-09-12T15:15:37;1.48;;;1.15;;
9418;SDS011;4748;50.802;7.132;2022-09-12T15:18:10;0.55;;;0.55;;
9418;SDS011;4748;50.802;7.132;2022-09-12T15:20:38;1.48;;;0.88;;
9418;SDS011;4748;50.802;7.132;2022-09-12T15:23:05;0.70;;;0.70;;
9418;SDS011;4748;50.802;7.132;2022-09-12T15:25:38;0.65;;;0.65;;
9418;SDS011;4748;50.802;7.132;2022-09-12T15:28:10;0.80;;;0.80;;
9418;SDS011;4748;50.802;7.132;2022-09-12T15:30:42;0.63;;;0.63;;
9418;SDS011;4748;50.802;7.132;2022-09-12T15:33:09;0.60;;;0.60;;
9418;SDS011;4748;50.802;7.132;2022-09-12T15:35:35;1.02;;;1.02;;
9418;SDS011;4748;50.802;7.132;2022-09-12T15:38:01;0.88;;;0.70;;
9418;SDS011;4748;50.802;7.132;2022-09-12T15:40:27;2.45;;;0.73;;
9418;SDS011;4748;50.802;7.132;2022-09-12T15:42:52;0.95;;;0.95;;
9418;SDS011;4748;50.802;7.132;2022-09-12T15:45:20;1.30;;;1.25;;
9418;SDS011;4748;50.802;7.132;2022-09-12T15:47:47;0.95;;;0.95;;
9418;SDS011;4748;50.802;7.132;2022-09-12T15:50:13;0.90;;;0.90;;
9418;SDS011;4748;50.802;7.132;2022-09-12T15:52:39;0.70;;;0.70;;
9418;SDS011;4748;50.802;7.132;2022-09-12T15:55:08;1.13;;;1.10;;
9418;SDS011;4748;50.802;7.132;2022-09-12T15:57:40;0.93;;;0.93;;
9418;SDS011;4748;50.802;7.132;2022-09-12T16:00:06;1.05;;;0.95;;
9418;SDS011;4748;50.802;7.132;2022-09-12T16:02:32;0.82;;;0.80;;
9418;SDS011;4748;50.802;7.132;2022-09-12T16:04:57;1.20;;;0.57;;
9418;SDS011;4748;50.802;7.132;2022-09-12T16:07:22;1.05;;;1.05;;
9418;SDS011;4748;50.802;7.132;2022-09-12T16:09:48;1.10;;;1.10;;
9418;SDS011;4748;50.802;7.132;2022-09-12T16:12:14;0.75;;;0.75;;
9418;SDS011;4748;50.802;7.132;2022-09-12T16:14:40;1.00;;;0.95;;
9418;SDS011;4748;50.802;7.132;2022-09-12T16:17:05;0.90;;;0.90;;
9418;SDS011;4748;50.802;7.132;2022-09-12T16:19:31;0.90;;;0.90;;
9418;SDS011;4748;50.802;7.132;2022-09-12T16:21:56;0.70;;;0.70;;
9418;SDS011;4748;50.802;7.132;2022-09-12T16:24:22;0.80;;;0.80;;
9418;SDS011;4748;50.802;7.132;2022-09-12T16:26:47;0.80;;;0.80;;
9418;SDS011;4748;50.802;7.132;2022-09-12T16:29:13;0.80;;;0.80;;
9418;SDS011;4748;50.802;7.132;2022-09-12T16:31:38;3.70;;;1.10;;
9418;SDS011;4748;50.802;7.132;2022-09-12T16:34:04;0.80;;;0.80;;
9418;SDS011;4748;50.802;7.132;2022-09-12T16:36:29;2.60;;;0.80;;
9418;SDS011;4748;50.802;7.132;2022-09-12T16:38:55;0.80;;;0.80;;
9418;SDS011;4748;50.802;7.132;2022-09-12T16:41:21;0.77;;;0.77;;
9418;SDS011;4748;50.802;7.132;2022-09-12T16:43:51;0.80;;;0.80;;
9418;SDS011;4748;50.802;7.132;2022-09-12T16:46:22;1.80;;;0.85;;
9418;SDS011;4748;50.802;7.132;2022-09-12T16:48:50;0.82;;;0.82;;
9418;SDS011;4748;50.802;7.132;2022-09-12T16:51:21;0.63;;;0.63;;
9418;SDS011;4748;50.802;7.132;2022-09-12T16:53:50;3.03;;;1.95;;
9418;SDS011;4748;50.802;7.132;2022-09-12T16:56:15;1.00;;;1.00;;
9418;SDS011;4748;50.802;7.132;2022-09-12T16:58:41;0.75;;;0.75;;
9418;SDS011;4748;50.802;7.132;2022-09-12T17:03:54;0.93;;;0.80;;
9418;SDS011;4748;50.802;7.132;2022-09-12T17:06:21;1.40;;;0.88;;
9418;SDS011;4748;50.802;7.132;2022-09-12T17:08:47;0.75;;;0.75;;
9418;SDS011;4748;50.802;7.132;2022-09-12T17:11:15;1.75;;;0.98;;
9418;SDS011;4748;50.802;7.132;2022-09-12T17:13:47;1.10;;;0.70;;
9418;SDS011;4748;50.802;7.132;2022-09-12T17:16:17;0.70;;;0.70;;
9418;SDS011;4748;50.802;7.132;2022-09-12T17:18:43;0.80;;;0.73;;
9418;SDS011;4748;50.802;7.132;2022-09-12T17:21:09;0.85;;;0.85;;
9418;SDS011;4748;50.802;7.132;2022-09-12T17:23:35;0.70;;;0.70;;
9418;SDS011;4748;50.802;7.132;2022-09-12T17:26:01;1.05;;;0.68;;
9418;SDS011;4748;50.802;7.132;2022-09-12T17:28:27;0.85;;;0.85;;
9418;SDS011;4748;50.802;7.132;2022-09-12T17:30:56;0.68;;;0.68;;
9418;SDS011;4748;50.802;7.132;2022-09-12T17:33:23;1.52;;;0.68;;
9418;SDS011;4748;50.802;7.132;2022-09-12T17:35:49;0.75;;;0.75;;
9418;SDS011;4748;50.802;7.132;2022-09-12T17:38:14;1.25;;;0.70;;
9418;SDS011;4748;50.802;7.132;2022-09-12T17:40:40;1.05;;;1.05;;
9418;SDS011;4748;50.802;7.132;2022-09-12T17:43:06;0.70;;;0.70;;
9418;SDS011;4748;50.802;7.132;2022-09-12T17:45:31;0.82;;;0.82;;
9418;SDS011;4748;50.802;7.132;2022-09-12T17:47:57;4.70;;;0.60;;
9418;SDS011;4748;50.802;7.132;2022-09-12T17:50:23;2.78;;;0.70;;
9418;SDS011;4748;50.802;7.132;2022-09-12T17:52:48;0.50;;;0.50;;
9418;SDS011;4748;50.802;7.132;2022-09-12T17:55:13;0.60;;;0.60;;
9418;SDS011;4748;50.802;7.132;2022-09-12T17:57:39;0.50;;;0.50;;
9418;SDS011;4748;50.802;7.132;2022-09-12T18:00:06;4.55;;;0.55;;
9418;SDS011;4748;50.802;7.132;2022-09-12T18:02:33;0.63;;;0.63;;
9418;SDS011;4748;50.802;7.132;2022-09-12T18:04:58;0.77;;;0.77;;
9418;SDS011;4748;50.802;7.132;2022-09-12T18:07:24;0.60;;;0.60;;
9418;SDS011;4748;50.802;7.132;2022-09-12T18:09:49;0.47;;;0.47;;
9418;SDS011;4748;50.802;7.132;2022-09-12T18:12:16;1.85;;;0.60;;
9418;SDS011;4748;50.802;7.132;2022-09-12T18:14:42;1.25;;;0.50;;
9418;SDS011;4748;50.802;7.132;2022-09-12T18:17:08;1.13;;;0.70;;
9418;SDS011;4748;50.802;7.132;2022-09-12T18:19:35;0.60;;;0.52;;
9418;SDS011;4748;50.802;7.132;2022-09-12T18:22:02;0.50;;;0.50;;
9418;SDS011;4748;50.802;7.132;2022-09-12T18:24:30;0.50;;;0.40;;
9418;SDS011;4748;50.802;7.132;2022-09-12T18:26:55;0.50;;;0.50;;
9418;SDS011;4748;50.802;7.132;2022-09-12T18:29:21;0.52;;;0.40;;
9418;SDS011;4748;50.802;7.132;2022-09-12T18:31:47;0.82;;;0.60;;
9418;SDS011;4748;50.802;7.132;2022-09-12T18:34:14;0.60;;;0.60;;
9418;SDS011;4748;50.802;7.132;2022-09-12T18:36:41;0.57;;;0.57;;
9418;SDS011;4748;50.802;7.132;2022-09-12T18:39:11;0.85;;;0.50;;
9418;SDS011;4748;50.802;7.132;2022-09-12T18:41:38;0.70;;;0.70;;
9418;SDS011;4748;50.802;7.132;2022-09-12T18:44:04;1.55;;;0.50;;
9418;SDS011;4748;50.802;7.132;2022-09-12T18:46:31;0.88;;;0.88;;
9418;SDS011;4748;50.802;7.132;2022-09-12T18:48:58;0.60;;;0.60;;
9418;SDS011;4748;50.802;7.132;2022-09-12T18:51:24;0.60;;;0.60;;
9418;SDS011;4748;50.802;7.132;2022-09-12T18:53:55;0.55;;;0.55;;
9418;SDS011;4748;50.802;7.132;2022-09-12T18:56:23;0.57;;;0.50;;
9418;SDS011;4748;50.802;7.132;2022-09-12T18:58:51;0.50;;;0.40;;
9418;SDS011;4748;50.802;7.132;2022-09-12T19:01:22;1.10;;;0.50;;
9418;SDS011;4748;50.802;7.132;2022-09-12T19:03:52;0.82;;;0.82;;
9418;SDS011;4748;50.802;7.132;2022-09-12T19:06:22;0.85;;;0.80;;
9418;SDS011;4748;50.802;7.132;2022-09-12T19:08:49;0.65;;;0.63;;
9418;SDS011;4748;50.802;7.132;2022-09-12T19:11:16;0.80;;;0.80;;
9418;SDS011;4748;50.802;7.132;2022-09-12T19:13:42;2.05;;;1.02;;
9418;SDS011;4748;50.802;7.132;2022-09-12T19:16:10;3.83;;;0.60;;
9418;SDS011;4748;50.802;7.132;2022-09-12T19:18:37;3.55;;;0.70;;
9418;SDS011;4748;50.802;7.132;2022-09-12T19:21:04;1.40;;;0.68;;
9418;SDS011;4748;50.802;7.132;2022-09-12T19:23:31;1.85;;;0.60;;
9418;SDS011;4748;50.802;7.132;2022-09-12T19:26:01;0.50;;;0.50;;
9418;SDS011;4748;50.802;7.132;2022-09-12T19:28:29;1.40;;;0.70;;
9418;SDS011;4748;50.802;7.132;2022-09-12T19:30:54;1.70;;;0.70;;
9418;SDS011;4748;50.802;7.132;2022-09-12T19:33:20;0.80;;;0.80;;
9418;SDS011;4748;50.802;7.132;2022-09-12T19:35:46;2.00;;;1.20;;
9418;SDS011;4748;50.802;7.132;2022-09-12T19:38:12;4.00;;;0.90;;
9418;SDS011;4748;50.802;7.132;2022-09-12T19:40:37;0.77;;;0.70;;
9418;SDS011;4748;50.802;7.132;2022-09-12T19:43:04;0.82;;;0.73;;
9418;SDS011;4748;50.802;7.132;2022-09-12T19:45:30;5.20;;;0.98;;
9418;SDS011;4748;50.802;7.132;2022-09-12T19:47:55;0.93;;;0.93;;
9418;SDS011;4748;50.802;7.132;2022-09-12T19:50:21;1.75;;;0.98;;
9418;SDS011;4748;50.802;7.132;2022-09-12T19:52:46;0.90;;;0.90;;
9418;SDS011;4748;50.802;7.132;2022-09-12T19:55:11;2.38;;;0.90;;
9418;SDS011;4748;50.802;7.132;2022-09-12T19:57:37;0.90;;;0.90;;
9418;SDS011;4748;50.802;7.132;2022-09-12T20:00:02;0.75;;;0.75;;
9418;SDS011;4748;50.802;7.132;2022-09-12T20:02:29;0.60;;;0.60;;
9418;SDS011;4748;50.802;7.132;2022-09-12T20:04:55;1.80;;;1.00;;
9418;SDS011;4748;50.802;7.132;2022-09-12T20:07:20;2.08;;;0.93;;
9418;SDS011;4748;50.802;7.132;2022-09-12T20:09:45;2.25;;;0.70;;
9418;SDS011;4748;50.802;7.132;2022-09-12T20:12:11;3.53;;;0.98;;
9418;SDS011;4748;50.802;7.132;2022-09-12T20:14:38;2.28;;;0.80;;
9418;SDS011;4748;50.802;7.132;2022-09-12T20:17:04;1.65;;;0.90;;
9418;SDS011;4748;50.802;7.132;2022-09-12T20:19:29;1.17;;;1.17;;
9418;SDS011;4748;50.802;7.132;2022-09-12T20:21:55;1.43;;;1.10;;
9418;SDS011;4748;50.802;7.132;2022-09-12T20:24:20;1.17;;;0.90;;
9418;SDS011;4748;50.802;7.132;2022-09-12T20:26:46;1.40;;;0.95;;
9418;SDS011;4748;50.802;7.132;2022-09-12T20:29:11;1.35;;;1.25;;
9418;SDS011;4748;50.802;7.132;2022-09-12T20:31:37;3.80;;;0.97;;
9418;SDS011;4748;50.802;7.132;2022-09-12T20:34:04;0.98;;;0.85;;
9418;SDS011;4748;50.802;7.132;2022-09-12T20:36:30;1.10;;;1.00;;
9418;SDS011;4748;50.802;7.132;2022-09-12T20:38:56;1.03;;;1.03;;
9418;SDS011;4748;50.802;7.132;2022-09-12T20:41:24;4.80;;;1.03;;
9418;SDS011;4748;50.802;7.132;2022-09-12T20:43:52;2.77;;;1.07;;
9418;SDS011;4748;50.802;7.132;2022-09-12T20:46:19;0.73;;;0.70;;
9418;SDS011;4748;50.802;7.132;2022-09-12T20:48:45;0.97;;;0.97;;
9418;SDS011;4748;50.802;7.132;2022-09-12T20:51:11;1.00;;;1.00;;
9418;SDS011;4748;50.802;7.132;2022-09-12T20:53:37;1.13;;;1.03;;
9418;SDS011;4748;50.802;7.132;2022-09-12T20:56:02;4.07;;;0.70;;
9418;SDS011;4748;50.802;7.132;2022-09-12T20:58:29;2.37;;;1.10;;
9418;SDS011;4748;50.802;7.132;2022-09-12T21:00:55;0.90;;;0.80;;
9418;SDS011;4748;50.802;7.132;2022-09-12T21:03:20;0.83;;;0.83;;
9418;SDS011;4748;50.802;7.132;2022-09-12T21:05:46;1.27;;;1.23;;
9418;SDS011;4748;50.802;7.132;2022-09-12T21:08:12;1.87;;;1.07;;
9418;SDS011;4748;50.802;7.132;2022-09-12T21:10:41;2.30;;;1.30;;